Time;durP1;ratioP1;P1;durP2;ratioP2;P2;SDS_P1;SDS_P2;PMS_P1;PMS_P2;Temp;Humidity;BMP_temperature;BMP_pressure;BME280_temperature;BME280_humidity;BME280_pressure;Samples;Min_cycle;Max_cycle;Signal;HPM_P1;HPM_P2
2023/09/24 00:02:10;;;;;;;6.05;3.42;;;8.50;99.90;;;;;;5086230;28;20103;-68
2023/09/24 00:04:36;;;;;;;4.50;2.80;;;8.50;99.90;;;;;;5088833;28;20031;-68
2023/09/24 00:07:02;;;;;;;7.22;3.00;;;8.50;99.90;;;;;;5087446;28;20028;-69
2023/09/24 00:09:28;;;;;;;7.75;3.03;;;8.50;99.90;;;;;;5087365;28;20068;-68
2023/09/24 00:11:53;;;;;;;5.78;3.15;;;8.50;99.90;;;;;;5087355;28;20054;-69
2023/09/24 00:14:19;;;;;;;6.32;3.30;;;8.50;99.90;;;;;;5087765;28;20153;-68
2023/09/24 00:16:45;;;;;;;6.72;2.90;;;8.50;99.90;;;;;;5089896;28;20044;-68
2023/09/24 00:19:10;;;;;;;7.18;2.75;;;8.40;99.90;;;;;;5091202;28;20036;-68
2023/09/24 00:21:36;;;;;;;6.03;3.08;;;8.10;99.90;;;;;;5092279;28;20039;-68
2023/09/24 00:24:03;;;;;;;5.57;3.15;;;8.00;99.90;;;;;;5091287;28;20016;-68
2023/09/24 00:26:29;;;;;;;6.05;2.97;;;7.90;99.90;;;;;;5091222;28;20032;-68
2023/09/24 00:28:56;;;;;;;8.25;3.55;;;7.90;99.90;;;;;;5091365;28;20028;-69
2023/09/24 00:31:22;;;;;;;4.82;2.97;;;7.90;99.90;;;;;;5091090;28;20042;-68
2023/09/24 00:33:48;;;;;;;6.97;3.47;;;8.00;99.90;;;;;;5092181;28;20115;-68
2023/09/24 00:36:15;;;;;;;5.95;3.00;;;8.00;99.90;;;;;;5090281;28;20043;-68
2023/09/24 00:38:41;;;;;;;7.63;3.40;;;8.10;99.90;;;;;;5091246;28;20048;-68
2023/09/24 00:41:07;;;;;;;8.27;3.22;;;8.10;99.90;;;;;;5090239;28;20117;-69
2023/09/24 00:43:34;;;;;;;7.63;2.97;;;8.10;99.90;;;;;;5091882;28;20024;-69
2023/09/24 00:46:04;;;;;;;8.40;3.20;;;8.10;99.90;;;;;;5088510;28;20035;-69
2023/09/24 00:48:30;;;;;;;8.25;3.38;;;8.10;99.90;;;;;;5090221;28;20106;-69
2023/09/24 00:51:22;;;;;;;5.95;3.30;;;8.20;99.90;;;;;;5091249;28;20801;-68
2023/09/24 00:53:52;;;;;;;5.78;2.90;;;8.10;99.90;;;;;;5091559;28;20040;-68
2023/09/24 00:56:18;;;;;;;7.03;2.92;;;8.20;99.90;;;;;;5090855;28;20115;-69
2023/09/24 00:58:47;;;;;;;5.20;2.67;;;8.10;99.90;;;;;;5091490;28;20119;-68
2023/09/24 01:01:13;;;;;;;10.20;2.92;;;8.10;99.90;;;;;;5086797;28;20028;-69
2023/09/24 01:03:39;;;;;;;7.75;3.13;;;8.10;99.90;;;;;;5090910;28;20032;-68
2023/09/24 01:06:06;;;;;;;8.20;3.10;;;7.90;99.90;;;;;;5090926;28;20868;-68
2023/09/24 01:08:33;;;;;;;7.03;3.20;;;7.90;99.90;;;;;;5091579;28;20062;-68
2023/09/24 01:10:59;;;;;;;5.88;3.20;;;7.90;99.90;;;;;;5089552;28;20024;-69
2023/09/24 01:13:24;;;;;;;6.63;3.13;;;7.90;99.90;;;;;;5091004;28;20041;-68
2023/09/24 01:15:51;;;;;;;12.15;3.70;;;7.90;99.90;;;;;;5091109;28;20473;-68
2023/09/24 01:18:22;;;;;;;6.35;3.20;;;7.90;99.90;;;;;;5089370;28;20122;-68
2023/09/24 01:20:48;;;;;;;7.40;3.80;;;7.80;99.90;;;;;;5091111;28;20528;-68
2023/09/24 01:23:15;;;;;;;7.90;3.10;;;7.80;99.90;;;;;;5088903;28;20090;-68
2023/09/24 01:25:43;;;;;;;7.05;3.30;;;7.80;99.90;;;;;;5089944;28;20090;-68
2023/09/24 01:28:10;;;;;;;6.75;3.33;;;7.80;99.90;;;;;;5089699;28;20142;-68
2023/09/24 01:30:36;;;;;;;7.10;3.45;;;7.80;99.90;;;;;;5091003;28;20020;-69
2023/09/24 01:33:02;;;;;;;5.72;3.13;;;7.70;99.90;;;;;;5088085;28;20035;-69
2023/09/24 01:35:28;;;;;;;6.65;3.55;;;7.70;99.90;;;;;;5071641;28;20040;-68
2023/09/24 01:38:06;;;;;;;6.68;3.25;;;7.70;99.90;;;;;;5090892;28;20202;-68
2023/09/24 01:40:37;;;;;;;4.80;2.88;;;7.60;99.90;;;;;;5089445;28;20028;-68
2023/09/24 01:43:07;;;;;;;8.77;3.00;;;7.50;99.90;;;;;;5090003;28;20024;-68
2023/09/24 01:45:34;;;;;;;5.10;2.83;;;7.50;99.90;;;;;;5090734;28;20074;-69
2023/09/24 01:48:03;;;;;;;6.07;3.13;;;7.50;99.90;;;;;;5089141;28;20911;-69
2023/09/24 01:50:29;;;;;;;6.32;2.80;;;7.40;99.90;;;;;;5084411;28;20070;-69
2023/09/24 01:52:58;;;;;;;5.72;2.88;;;7.40;99.90;;;;;;5090432;28;20032;-68
2023/09/24 01:55:27;;;;;;;5.78;2.83;;;7.50;99.90;;;;;;5089559;28;20036;-68
2023/09/24 01:57:54;;;;;;;5.82;2.70;;;7.40;99.90;;;;;;5089735;28;20028;-68
2023/09/24 02:00:26;;;;;;;6.68;2.75;;;7.50;99.90;;;;;;5087328;28;20623;-68
2023/09/24 02:02:54;;;;;;;7.03;2.90;;;7.40;99.90;;;;;;5087993;28;20078;-68
2023/09/24 02:05:20;;;;;;;4.90;2.95;;;7.50;99.90;;;;;;5087965;28;20032;-68
2023/09/24 02:07:49;;;;;;;4.75;2.80;;;7.50;99.90;;;;;;5090011;28;20032;-67
2023/09/24 02:10:18;;;;;;;5.47;2.97;;;7.50;99.90;;;;;;5070717;28;20038;-68
2023/09/24 02:12:45;;;;;;;4.47;2.67;;;7.30;99.90;;;;;;5090126;28;20024;-68
2023/09/24 02:15:15;;;;;;;6.75;2.88;;;7.30;99.90;;;;;;5087758;28;20063;-68
2023/09/24 02:17:42;;;;;;;7.13;2.90;;;7.40;99.90;;;;;;5090034;28;20081;-68
2023/09/24 02:20:18;;;;;;;6.38;3.13;;;7.40;99.90;;;;;;5087994;28;20135;-67
2023/09/24 02:22:45;;;;;;;7.93;3.33;;;7.40;99.90;;;;;;5069763;28;20020;-68
2023/09/24 02:25:14;;;;;;;8.90;2.80;;;7.40;99.90;;;;;;5068577;28;20378;-67
2023/09/24 02:27:41;;;;;;;5.50;2.33;;;7.30;99.90;;;;;;5069453;28;20028;-67
2023/09/24 02:30:10;;;;;;;6.28;2.58;;;7.20;99.90;;;;;;5072280;28;20028;-69
2023/09/24 02:32:36;;;;;;;5.97;3.03;;;7.10;99.90;;;;;;5085145;28;20043;-68
2023/09/24 02:35:02;;;;;;;6.18;2.72;;;7.10;99.90;;;;;;5089253;28;20047;-68
2023/09/24 02:37:29;;;;;;;4.82;2.60;;;7.00;99.90;;;;;;5088130;28;20024;-68
2023/09/24 02:39:55;;;;;;;6.82;2.70;;;7.00;99.90;;;;;;5087790;28;20105;-68
2023/09/24 02:42:21;;;;;;;9.07;2.38;;;6.90;99.90;;;;;;5088807;28;20263;-68
2023/09/24 02:44:48;;;;;;;6.45;3.03;;;6.90;99.90;;;;;;5089460;28;20039;-68
2023/09/24 02:47:14;;;;;;;4.90;2.70;;;6.90;99.90;;;;;;5088081;28;20035;-68
2023/09/24 02:49:40;;;;;;;5.18;2.60;;;6.90;99.90;;;;;;5089451;28;20021;-68
2023/09/24 02:52:06;;;;;;;6.50;3.05;;;6.90;99.90;;;;;;5087825;28;20039;-68
2023/09/24 02:54:32;;;;;;;7.78;2.80;;;7.00;99.90;;;;;;5088941;28;20024;-68
2023/09/24 02:56:58;;;;;;;7.32;3.03;;;7.00;99.90;;;;;;5089014;28;20024;-68
2023/09/24 02:59:24;;;;;;;5.78;2.95;;;6.90;99.90;;;;;;5088505;28;20084;-68
2023/09/24 03:01:52;;;;;;;6.57;3.20;;;6.90;99.90;;;;;;5087672;28;20054;-68
2023/09/24 03:04:18;;;;;;;7.22;3.30;;;6.90;99.90;;;;;;5087183;28;20036;-68
2023/09/24 03:06:44;;;;;;;8.95;3.40;;;6.90;99.90;;;;;;5089093;28;20028;-68
2023/09/24 03:09:12;;;;;;;4.88;3.10;;;6.80;99.90;;;;;;5088003;28;20019;-68
2023/09/24 03:11:38;;;;;;;10.18;3.03;;;6.80;99.90;;;;;;5068854;28;20482;-68
2023/09/24 03:14:05;;;;;;;6.82;2.90;;;6.80;99.90;;;;;;5068282;28;20528;-68
2023/09/24 03:16:30;;;;;;;5.32;2.85;;;6.80;99.90;;;;;;5085534;28;20407;-68
2023/09/24 03:18:56;;;;;;;6.80;3.28;;;6.80;99.90;;;;;;5089345;28;20032;-68
2023/09/24 03:21:22;;;;;;;5.80;3.30;;;6.80;99.90;;;;;;5087919;28;20024;-69
2023/09/24 03:23:47;;;;;;;7.70;3.25;;;6.80;99.90;;;;;;5088842;28;20061;-68
2023/09/24 03:26:16;;;;;;;6.60;2.63;;;6.80;99.90;;;;;;5087992;28;20031;-68
2023/09/24 03:28:42;;;;;;;7.60;2.97;;;6.90;99.90;;;;;;5087832;28;20059;-68
2023/09/24 03:31:14;;;;;;;6.57;3.30;;;6.90;99.90;;;;;;5086562;28;20043;-69
2023/09/24 03:33:40;;;;;;;5.15;2.97;;;6.90;99.90;;;;;;5087437;28;20024;-68
2023/09/24 03:36:08;;;;;;;6.38;3.10;;;6.90;99.90;;;;;;5088446;28;20036;-68
2023/09/24 03:38:34;;;;;;;6.07;2.78;;;6.80;99.90;;;;;;5088728;28;20154;-68
2023/09/24 03:41:02;;;;;;;6.03;3.10;;;6.80;99.90;;;;;;5088683;28;20039;-68
2023/09/24 03:43:32;;;;;;;4.70;2.75;;;6.70;99.90;;;;;;5085774;28;20641;-69
2023/09/24 03:45:57;;;;;;;7.07;2.88;;;6.70;99.90;;;;;;5085705;28;20047;-68
2023/09/24 03:48:23;;;;;;;6.68;2.38;;;6.60;99.90;;;;;;5087676;28;20500;-69
2023/09/24 03:50:49;;;;;;;5.70;2.47;;;6.50;99.90;;;;;;5090431;28;20118;-67
2023/09/24 03:53:17;;;;;;;9.43;2.75;;;6.50;99.90;;;;;;5091922;28;20133;-67
2023/09/24 03:55:45;;;;;;;5.82;2.90;;;6.40;99.90;;;;;;5092207;28;20504;-67
2023/09/24 03:58:14;;;;;;;4.13;2.42;;;6.50;99.90;;;;;;5092202;28;20368;-68
2023/09/24 04:00:41;;;;;;;4.90;2.45;;;6.50;99.90;;;;;;5089716;28;20825;-68
2023/09/24 04:03:08;;;;;;;5.60;2.80;;;6.40;99.90;;;;;;5092460;28;20043;-68
2023/09/24 04:05:34;;;;;;;5.18;2.50;;;6.30;99.90;;;;;;5092368;28;20475;-68
2023/09/24 04:08:01;;;;;;;5.88;2.65;;;6.30;99.90;;;;;;5092687;28;20032;-68
2023/09/24 04:10:28;;;;;;;5.32;2.67;;;6.30;99.90;;;;;;5090436;28;20032;-68
2023/09/24 04:12:53;;;;;;;5.05;2.70;;;6.20;99.90;;;;;;5092524;28;20101;-68
2023/09/24 04:15:23;;;;;;;7.25;2.90;;;6.30;99.90;;;;;;5090718;28;20085;-68
2023/09/24 04:17:49;;;;;;;6.75;2.58;;;6.40;99.90;;;;;;5092475;28;20036;-68
2023/09/24 04:20:15;;;;;;;8.13;2.55;;;6.40;99.90;;;;;;5090413;28;20548;-68
2023/09/24 04:22:44;;;;;;;5.38;2.65;;;6.50;99.90;;;;;;5092087;28;20070;-68
2023/09/24 04:25:14;;;;;;;9.73;2.67;;;6.50;99.90;;;;;;5091394;28;20040;-68
2023/09/24 04:27:40;;;;;;;4.82;2.70;;;6.50;99.90;;;;;;5092088;28;20082;-68
2023/09/24 04:30:13;;;;;;;5.38;2.40;;;6.50;99.90;;;;;;5091008;28;20032;-68
2023/09/24 04:32:40;;;;;;;5.93;2.35;;;6.50;99.90;;;;;;5091459;28;20028;-68
2023/09/24 04:35:06;;;;;;;5.07;2.47;;;6.60;99.90;;;;;;5091086;28;20055;-68
2023/09/24 04:37:32;;;;;;;5.45;2.70;;;6.50;99.90;;;;;;5073040;28;20043;-68
2023/09/24 04:39:58;;;;;;;6.05;2.75;;;6.40;99.90;;;;;;5091624;28;20024;-68
2023/09/24 04:42:24;;;;;;;5.78;2.53;;;6.30;99.90;;;;;;5089887;28;20024;-68
2023/09/24 04:44:50;;;;;;;5.60;2.60;;;6.30;99.90;;;;;;5086159;28;20047;-68
2023/09/24 04:47:15;;;;;;;4.55;2.40;;;6.30;99.90;;;;;;5087106;28;20415;-67
2023/09/24 04:49:41;;;;;;;5.68;2.80;;;6.20;99.90;;;;;;5090454;28;20024;-67
2023/09/24 04:52:06;;;;;;;4.07;2.55;;;6.20;99.90;;;;;;5090429;28;20130;-67
2023/09/24 04:54:32;;;;;;;4.18;2.60;;;6.20;99.90;;;;;;5068935;28;20093;-67
2023/09/24 04:56:58;;;;;;;8.13;2.63;;;6.10;99.90;;;;;;5090006;28;20028;-68
2023/09/24 04:59:23;;;;;;;2.97;2.15;;;6.10;99.90;;;;;;5090081;28;20027;-68
2023/09/24 05:01:50;;;;;;;6.78;2.88;;;6.10;99.90;;;;;;5089842;28;20036;-67
2023/09/24 05:04:17;;;;;;;9.18;2.83;;;6.10;99.90;;;;;;5090614;28;20028;-67
2023/09/24 05:06:43;;;;;;;6.53;3.25;;;6.20;99.90;;;;;;5089669;28;20040;-67
2023/09/24 05:09:08;;;;;;;5.13;2.38;;;6.10;99.90;;;;;;5088711;28;20042;-67
2023/09/24 05:11:34;;;;;;;7.63;3.33;;;6.20;99.90;;;;;;5089599;28;20042;-68
2023/09/24 05:14:00;;;;;;;6.07;2.60;;;6.20;99.90;;;;;;5089671;28;20705;-67
2023/09/24 05:16:26;;;;;;;4.70;2.38;;;6.10;99.90;;;;;;5075298;28;20044;-67
2023/09/24 05:18:52;;;;;;;3.65;2.38;;;6.00;99.90;;;;;;5083013;28;20396;-67
2023/09/24 05:21:18;;;;;;;6.22;2.47;;;5.90;99.90;;;;;;5077227;28;20035;-68
2023/09/24 05:23:47;;;;;;;4.10;2.20;;;5.90;99.90;;;;;;5086842;28;20050;-67
2023/09/24 05:26:14;;;;;;;6.70;2.67;;;5.90;99.90;;;;;;5086411;28;20103;-69
2023/09/24 05:28:41;;;;;;;5.68;2.42;;;6.00;99.90;;;;;;5090738;28;20062;-67
2023/09/24 05:31:07;;;;;;;3.88;2.50;;;6.00;99.90;;;;;;5087497;28;20107;-68
2023/09/24 05:33:33;;;;;;;4.35;2.03;;;6.00;99.90;;;;;;5089912;28;20622;-68
2023/09/24 05:35:58;;;;;;;5.88;2.80;;;6.10;99.90;;;;;;5080559;28;20036;-67
2023/09/24 05:38:29;;;;;;;4.85;2.25;;;6.10;99.90;;;;;;5088373;28;20464;-68
2023/09/24 05:40:55;;;;;;;;;;;6.10;99.90;;;;;;5087007;28;20031;-68
2023/09/24 05:43:21;;;;;;;5.53;2.88;;;6.20;99.90;;;;;;5089519;28;20429;-68
2023/09/24 05:45:50;;;;;;;4.63;2.42;;;6.30;99.90;;;;;;5088844;28;20024;-68
2023/09/24 05:48:17;;;;;;;4.43;2.70;;;6.40;99.90;;;;;;5089544;28;20606;-68
2023/09/24 05:50:45;;;;;;;4.80;2.40;;;6.40;99.90;;;;;;5089590;28;20024;-67
2023/09/24 05:53:12;;;;;;;4.88;2.38;;;6.50;99.90;;;;;;5088500;28;20055;-68
2023/09/24 05:55:38;;;;;;;6.45;2.70;;;6.40;99.90;;;;;;5087120;28;20122;-67
2023/09/24 05:58:05;;;;;;;4.63;2.75;;;6.40;99.90;;;;;;5090275;28;20024;-67
2023/09/24 06:00:33;;;;;;;4.43;2.47;;;6.50;99.90;;;;;;5086153;28;20085;-68
2023/09/24 06:02:59;;;;;;;3.97;2.53;;;6.50;99.90;;;;;;5089081;28;20069;-67
2023/09/24 06:05:24;;;;;;;4.07;2.30;;;6.50;99.90;;;;;;5080354;28;20116;-67
2023/09/24 06:07:50;;;;;;;5.15;2.30;;;6.40;99.90;;;;;;5080365;28;20028;-67
2023/09/24 06:10:15;;;;;;;3.47;2.42;;;6.40;99.90;;;;;;5083489;28;20373;-69
2023/09/24 06:12:41;;;;;;;5.78;2.40;;;6.60;99.90;;;;;;5086406;28;20028;-68
2023/09/24 06:15:10;;;;;;;4.78;2.90;;;6.70;99.90;;;;;;5088875;28;20506;-67
2023/09/24 06:17:36;;;;;;;5.53;2.25;;;6.60;99.90;;;;;;5089435;28;20051;-67
2023/09/24 06:20:03;;;;;;;12.00;2.60;;;6.50;99.90;;;;;;5085144;28;20838;-67
2023/09/24 06:22:29;;;;;;;4.63;2.75;;;6.60;99.90;;;;;;5087207;28;20024;-68
2023/09/24 06:24:55;;;;;;;8.07;2.75;;;6.70;99.90;;;;;;5084768;28;20047;-68
2023/09/24 06:27:22;;;;;;;6.43;2.72;;;6.80;99.90;;;;;;5088601;28;20036;-68
2023/09/24 06:29:47;;;;;;;5.05;2.78;;;6.80;99.90;;;;;;5072928;28;20440;-67
2023/09/24 06:32:14;;;;;;;6.03;2.70;;;6.80;99.90;;;;;;5088278;28;20031;-68
2023/09/24 06:34:39;;;;;;;4.90;2.72;;;6.70;99.90;;;;;;5066222;28;20048;-67
2023/09/24 06:37:05;;;;;;;5.90;3.00;;;6.70;99.90;;;;;;5085185;28;20122;-68
2023/09/24 06:39:33;;;;;;;5.05;2.20;;;6.70;99.90;;;;;;5084625;28;20411;-68
2023/09/24 06:42:00;;;;;;;5.90;2.50;;;6.70;99.90;;;;;;5068979;28;20042;-66
2023/09/24 06:44:26;;;;;;;5.05;2.83;;;6.80;99.90;;;;;;5083100;28;20081;-67
2023/09/24 06:46:52;;;;;;;4.30;2.45;;;6.90;99.90;;;;;;5069300;28;20028;-67
2023/09/24 06:49:19;;;;;;;4.28;2.42;;;7.00;99.90;;;;;;5085164;28;20056;-68
2023/09/24 06:51:45;;;;;;;5.07;2.70;;;7.10;99.90;;;;;;5088213;28;20062;-67
2023/09/24 06:54:11;;;;;;;5.13;3.15;;;7.20;99.90;;;;;;5089364;28;20135;-67
2023/09/24 06:56:36;;;;;;;7.28;3.35;;;7.20;99.90;;;;;;5085014;28;20108;-67
2023/09/24 06:59:09;;;;;;;6.03;2.78;;;7.30;99.90;;;;;;5107245;28;20035;-67
2023/09/24 07:01:35;;;;;;;6.65;3.60;;;7.40;99.90;;;;;;5089025;28;20126;-67
2023/09/24 07:04:01;;;;;;;7.90;3.35;;;7.60;99.90;;;;;;5089490;28;20035;-66
2023/09/24 07:06:27;;;;;;;5.97;3.65;;;7.70;99.90;;;;;;5086806;28;20032;-68
2023/09/24 07:08:52;;;;;;;7.70;3.95;;;8.00;99.90;;;;;;5088150;28;20495;-68
2023/09/24 07:11:24;;;;;;;9.23;3.92;;;8.10;99.90;;;;;;5065497;28;20077;-67
2023/09/24 07:13:50;;;;;;;9.52;4.50;;;8.30;99.90;;;;;;5067584;28;20126;-67
2023/09/24 07:16:18;;;;;;;8.18;4.85;;;8.50;99.90;;;;;;5080073;28;20400;-67
2023/09/24 07:18:46;;;;;;;9.32;4.20;;;8.60;99.90;;;;;;5088793;28;20073;-68
2023/09/24 07:21:13;;;;;;;7.25;4.25;;;8.80;99.90;;;;;;5082502;28;20020;-66
2023/09/24 07:23:39;;;;;;;9.95;5.05;;;8.90;99.90;;;;;;5086704;28;20039;-66
2023/09/24 07:26:08;;;;;;;13.50;4.88;;;9.10;99.90;;;;;;5085820;28;20106;-67
2023/09/24 07:28:34;;;;;;;9.05;4.65;;;9.20;99.90;;;;;;5084776;28;20038;-67
2023/09/24 07:31:00;;;;;;;8.20;4.30;;;9.30;99.90;;;;;;5087846;28;20064;-67
2023/09/24 07:33:26;;;;;;;7.28;4.57;;;9.40;99.90;;;;;;5069925;28;20443;-67
2023/09/24 07:35:52;;;;;;;7.57;4.82;;;9.60;99.90;;;;;;5073968;28;20041;-67
2023/09/24 07:38:18;;;;;;;7.03;4.30;;;9.70;99.90;;;;;;5086939;28;20471;-67
2023/09/24 07:40:44;;;;;;;11.07;4.55;;;9.90;99.90;;;;;;5076336;28;20082;-66
2023/09/24 07:43:11;;;;;;;12.13;4.93;;;10.00;99.90;;;;;;5068293;28;20767;-68
2023/09/24 07:45:36;;;;;;;9.05;4.80;;;10.20;99.90;;;;;;5077680;28;20064;-68
2023/09/24 07:48:13;;;;;;;10.13;4.70;;;10.40;99.90;;;;;;5088400;28;20079;-67
2023/09/24 07:50:39;;;;;;;7.63;4.70;;;10.60;99.90;;;;;;5086589;28;20042;-69
2023/09/24 07:53:05;;;;;;;9.50;4.45;;;10.80;99.90;;;;;;5087947;28;20103;-68
2023/09/24 07:55:31;;;;;;;8.35;3.92;;;10.90;99.90;;;;;;5084805;28;20050;-69
2023/09/24 07:57:57;;;;;;;6.47;3.70;;;11.10;99.90;;;;;;5088541;28;20024;-68
2023/09/24 08:00:22;;;;;;;8.40;3.70;;;11.20;99.90;;;;;;5087260;28;20481;-67
2023/09/24 08:02:48;;;;;;;7.22;3.58;;;11.40;99.90;;;;;;5088480;28;20093;-67
2023/09/24 08:05:15;;;;;;;7.10;3.78;;;11.50;99.90;;;;;;5078209;28;20490;-66
2023/09/24 08:07:40;;;;;;;9.40;3.75;;;11.70;99.90;;;;;;5084219;28;20058;-68
2023/09/24 08:10:06;;;;;;;6.70;3.80;;;11.80;99.90;;;;;;5086945;28;20024;-68
2023/09/24 08:12:32;;;;;;;8.98;3.90;;;11.90;99.90;;;;;;5072320;28;20171;-68
2023/09/24 08:14:57;;;;;;;8.05;3.50;;;12.00;99.90;;;;;;5090599;28;20047;-68
2023/09/24 08:17:23;;;;;;;7.40;3.83;;;12.10;99.90;;;;;;5086653;28;20028;-68
2023/09/24 08:19:49;;;;;;;7.75;3.00;;;12.30;99.90;;;;;;5069915;28;20032;-68
2023/09/24 08:22:15;;;;;;;6.22;2.90;;;12.50;99.90;;;;;;5088147;28;20153;-69
2023/09/24 08:24:41;;;;;;;6.20;2.83;;;12.70;99.90;;;;;;5087557;28;20099;-69
2023/09/24 08:27:06;;;;;;;6.65;2.35;;;13.00;99.90;;;;;;5088181;28;20088;-69
2023/09/24 08:29:33;;;;;;;5.97;2.45;;;13.10;99.90;;;;;;5085369;28;20063;-68
2023/09/24 08:31:58;;;;;;;6.10;2.60;;;13.30;99.90;;;;;;5087749;28;20024;-68
2023/09/24 08:34:26;;;;;;;15.23;2.78;;;13.40;99.90;;;;;;5087803;28;20035;-68
2023/09/24 08:36:52;;;;;;;9.05;2.75;;;13.50;99.90;;;;;;5089951;28;20043;-68
2023/09/24 08:39:18;;;;;;;8.07;2.33;;;13.60;99.90;;;;;;5091890;28;20054;-68
2023/09/24 08:41:44;;;;;;;6.28;2.10;;;13.80;99.90;;;;;;5091043;28;20039;-68
2023/09/24 08:44:14;;;;;;;5.47;2.00;;;13.90;99.90;;;;;;5092642;28;20478;-68
2023/09/24 08:46:41;;;;;;;6.78;1.98;;;14.00;99.90;;;;;;5091105;28;20028;-69
2023/09/24 08:49:08;;;;;;;4.28;2.08;;;14.10;99.90;;;;;;5091609;28;20075;-69
2023/09/24 08:51:34;;;;;;;7.15;2.35;;;14.30;99.90;;;;;;5090814;28;20039;-68
2023/09/24 08:54:01;;;;;;;8.32;2.60;;;14.40;99.90;;;;;;5091808;28;20083;-69
2023/09/24 08:56:27;;;;;;;7.35;2.13;;;14.50;99.90;;;;;;5090639;28;20076;-69
2023/09/24 08:58:54;;;;;;;7.93;2.58;;;14.70;99.90;;;;;;5073337;28;20112;-69
2023/09/24 09:01:20;;;;;;;4.43;2.20;;;14.80;99.90;;;;;;5091673;28;20020;-69
2023/09/24 09:03:47;;;;;;;5.50;2.28;;;15.00;99.90;;;;;;5090819;28;20028;-69
2023/09/24 09:06:33;;;;;;;5.30;2.30;;;15.10;99.90;;;;;;5091363;28;20028;-69
2023/09/24 09:08:59;;;;;;;5.65;1.80;;;15.20;99.90;;;;;;5091277;28;20154;-68
2023/09/24 09:11:42;;;;;;;3.40;1.42;;;15.20;99.90;;;;;;5090632;28;20023;-68
2023/09/24 09:14:09;;;;;;;6.40;1.77;;;15.40;99.90;;;;;;5083047;28;20024;-69
2023/09/24 09:16:57;;;;;;;5.35;1.90;;;15.50;99.90;;;;;;5089827;28;20427;-70
2023/09/24 09:19:23;;;;;;;8.23;1.83;;;15.70;99.90;;;;;;5091182;28;20032;-69
2023/09/24 09:21:49;;;;;;;7.78;1.77;;;15.70;99.90;;;;;;5090349;28;20020;-68
2023/09/24 09:24:23;;;;;;;4.63;1.83;;;15.90;99.90;;;;;;5090731;28;20114;-68
2023/09/24 09:26:56;;;;;;;4.90;1.88;;;16.00;99.90;;;;;;5090025;28;20480;-68
2023/09/24 09:29:23;;;;;;;4.45;1.45;;;16.00;99.90;;;;;;5091216;28;20038;-68
2023/09/24 09:31:49;;;;;;;3.40;1.55;;;16.10;99.90;;;;;;5090160;28;20039;-69
2023/09/24 09:34:15;;;;;;;4.70;1.65;;;16.00;99.90;;;;;;5090824;28;20039;-69
2023/09/24 09:36:40;;;;;;;7.75;1.75;;;16.10;99.90;;;;;;5089878;28;20499;-69
2023/09/24 09:39:06;;;;;;;5.78;2.00;;;16.20;99.90;;;;;;5090591;28;20032;-69
2023/09/24 09:41:33;;;;;;;8.38;1.77;;;16.30;99.90;;;;;;5089835;28;20107;-69
2023/09/24 09:44:06;;;;;;;2.85;1.25;;;16.50;99.90;;;;;;5090540;28;20107;-69
2023/09/24 09:46:37;;;;;;;4.35;1.65;;;16.60;99.90;;;;;;5089805;28;20040;-69
2023/09/24 09:49:07;;;;;;;4.78;1.63;;;16.70;99.90;;;;;;5090683;28;20477;-69
2023/09/24 09:51:46;;;;;;;4.73;1.90;;;16.90;99.90;;;;;;5089737;28;20123;-69
2023/09/24 09:54:13;;;;;;;4.22;1.55;;;16.90;99.90;;;;;;5090659;28;20347;-69
2023/09/24 09:56:41;;;;;;;4.60;1.65;;;16.90;99.90;;;;;;5089298;28;20043;-69
2023/09/24 09:59:08;;;;;;;5.68;1.40;;;16.90;99.90;;;;;;5090051;28;20698;-69
2023/09/24 10:01:35;;;;;;;4.22;1.80;;;16.80;99.90;;;;;;5089226;28;20027;-69
2023/09/24 10:04:07;;;;;;;4.45;1.65;;;16.80;99.90;;;;;;5090292;28;20058;-68
2023/09/24 10:06:35;;;;;;;3.92;1.60;;;16.80;99.90;;;;;;5089299;28;20032;-68
2023/09/24 10:09:01;;;;;;;5.07;1.75;;;16.90;99.90;;;;;;5090083;28;20427;-68
2023/09/24 10:11:33;;;;;;;3.92;1.60;;;16.90;99.90;;;;;;5089710;28;20035;-68
2023/09/24 10:14:00;;;;;;;6.07;1.80;;;17.00;99.90;;;;;;5089835;28;20032;-67
2023/09/24 10:16:26;;;;;;;5.88;1.95;;;17.10;99.90;;;;;;5089752;28;20052;-69
2023/09/24 10:18:58;;;;;;;3.65;1.50;;;17.20;99.90;;;;;;5089128;28;20036;-69
2023/09/24 10:21:32;;;;;;;3.72;1.50;;;17.40;99.90;;;;;;5090026;28;20020;-68
2023/09/24 10:24:17;;;;;;;6.93;1.50;;;17.30;99.90;;;;;;5089810;28;20092;-68
2023/09/24 10:26:47;;;;;;;5.28;1.40;;;17.50;99.90;;;;;;5087361;28;20034;-69
2023/09/24 10:29:13;;;;;;;4.68;1.40;;;17.70;99.90;;;;;;5089436;28;20024;-69
2023/09/24 10:32:10;;;;;;;2.63;1.20;;;17.80;99.90;;;;;;5088980;28;20040;-68
2023/09/24 10:34:59;;;;;;;4.53;1.52;;;17.90;99.90;;;;;;5086714;28;20024;-69
2023/09/24 10:37:29;;;;;;;4.90;1.20;;;18.10;99.90;;;;;;5077430;28;20032;-69
2023/09/24 10:39:58;;;;;;;4.28;1.27;;;18.30;99.90;;;;;;5087993;28;20034;-69
2023/09/24 10:42:27;;;;;;;3.30;1.40;;;18.40;99.90;;;;;;5085974;28;20024;-68
2023/09/24 10:45:12;;;;;;;4.50;1.58;;;18.30;99.90;;;;;;5088148;28;20439;-68
2023/09/24 10:47:39;;;;;;;5.07;1.60;;;18.40;99.90;;;;;;5087238;28;20044;-69
2023/09/24 10:50:06;;;;;;;2.63;1.50;;;18.40;99.90;;;;;;5088894;28;20035;-67
2023/09/24 10:52:53;;;;;;;5.53;2.17;;;18.30;99.90;;;;;;5087233;28;20392;-68
2023/09/24 10:55:34;;;;;;;3.55;1.40;;;18.30;99.90;;;;;;5089364;28;20480;-68
2023/09/24 10:58:06;;;;;;;3.40;1.52;;;18.40;99.90;;;;;;5069715;28;20388;-68
2023/09/24 11:00:34;;;;;;;3.78;1.58;;;18.60;99.90;;;;;;5088408;28;20036;-68
2023/09/24 11:03:02;;;;;;;2.90;1.30;;;18.50;99.90;;;;;;5084673;28;20098;-68
2023/09/24 11:05:35;;;;;;;4.63;1.40;;;18.30;98.10;;;;;;5089040;28;20379;-67
2023/09/24 11:08:00;;;;;;;3.38;1.63;;;18.60;98.10;;;;;;5077866;28;20024;-68
2023/09/24 11:10:27;;;;;;;3.20;1.45;;;18.80;95.60;;;;;;5068849;28;20518;-69
2023/09/24 11:12:55;;;;;;;3.13;1.30;;;18.90;94.20;;;;;;5086285;28;20106;-68
2023/09/24 11:15:23;;;;;;;2.47;1.30;;;19.00;94.80;;;;;;5088261;28;20570;-69
2023/09/24 11:17:50;;;;;;;5.63;1.40;;;19.20;94.00;;;;;;5078501;28;20051;-69
2023/09/24 11:20:17;;;;;;;4.05;1.52;;;19.20;92.70;;;;;;5082117;28;20032;-68
2023/09/24 11:22:43;;;;;;;3.40;1.40;;;19.10;92.90;;;;;;5079978;28;20059;-69
2023/09/24 11:25:12;;;;;;;3.63;1.65;;;19.50;95.10;;;;;;5088088;28;20036;-69
2023/09/24 11:27:48;;;;;;;4.32;1.55;;;19.80;94.30;;;;;;5083582;28;20024;-69
2023/09/24 11:30:15;;;;;;;4.18;1.60;;;20.00;94.70;;;;;;5076519;28;20691;-69
2023/09/24 11:32:42;;;;;;;4.70;1.30;;;20.20;92.10;;;;;;5078212;28;20055;-69
2023/09/24 11:35:16;;;;;;;3.20;1.25;;;20.20;91.90;;;;;;5084263;28;20071;-69
2023/09/24 11:37:48;;;;;;;3.88;1.77;;;20.40;91.70;;;;;;5078937;28;20036;-69
2023/09/24 11:40:28;;;;;;;3.22;1.50;;;20.40;92.60;;;;;;5078850;28;20036;-69
2023/09/24 11:43:10;;;;;;;5.77;1.40;;;20.70;93.90;;;;;;5086296;28;20031;-68
2023/09/24 11:45:48;;;;;;;3.58;1.55;;;20.90;92.80;;;;;;5087693;28;20281;-68
2023/09/24 11:48:19;;;;;;;4.57;1.58;;;20.80;92.20;;;;;;5087571;28;20067;-68
2023/09/24 11:50:47;;;;;;;4.50;1.63;;;21.10;93.90;;;;;;5086856;28;20020;-68
2023/09/24 11:53:14;;;;;;;4.72;1.30;;;21.00;93.00;;;;;;5087450;28;20421;-68
2023/09/24 11:55:41;;;;;;;7.82;1.67;;;20.70;91.10;;;;;;5086720;28;20067;-69
2023/09/24 11:58:07;;;;;;;2.80;1.40;;;20.50;91.00;;;;;;5076775;28;20083;-68
2023/09/24 12:00:35;;;;;;;2.75;1.30;;;20.10;91.80;;;;;;5088136;28;20081;-68
2023/09/24 12:03:01;;;;;;;2.58;1.48;;;20.40;93.80;;;;;;5077705;28;20099;-68
2023/09/24 12:05:30;;;;;;;3.08;1.58;;;20.30;93.30;;;;;;5068583;28;20571;-68
2023/09/24 12:07:56;;;;;;;5.32;1.52;;;20.10;91.10;;;;;;5067234;28;20020;-68
2023/09/24 12:10:22;;;;;;;3.53;1.52;;;20.50;93.60;;;;;;5050296;28;20024;-68
2023/09/24 12:12:50;;;;;;;3.65;1.35;;;20.90;95.30;;;;;;5078243;28;20039;-68
2023/09/24 12:15:17;;;;;;;3.95;1.15;;;21.20;92.70;;;;;;5091349;28;21000;-68
2023/09/24 12:17:44;;;;;;;3.25;1.48;;;21.20;93.20;;;;;;5083358;28;20031;-68
2023/09/24 12:20:11;;;;;;;3.40;1.58;;;21.10;91.60;;;;;;5072160;28;20496;-68
2023/09/24 12:22:40;;;;;;;6.28;1.55;;;21.30;93.70;;;;;;5089388;28;20448;-69
2023/09/24 12:25:06;;;;;;;3.38;1.42;;;21.30;92.90;;;;;;5092504;28;20032;-68
2023/09/24 12:27:32;;;;;;;3.80;1.30;;;21.60;93.40;;;;;;5090510;28;20024;-68
2023/09/24 12:29:58;;;;;;;3.85;1.60;;;21.70;92.20;;;;;;5091180;28;20556;-69
2023/09/24 12:32:23;;;;;;;4.63;1.98;;;21.00;89.60;;;;;;5090511;28;20049;-68
2023/09/24 12:34:50;;;;;;;1.92;1.20;;;20.70;90.10;;;;;;5090909;28;20038;-68
2023/09/24 12:37:16;;;;;;;4.65;1.52;;;20.90;91.40;;;;;;5086772;28;20036;-69
2023/09/24 12:39:41;;;;;;;4.20;1.52;;;21.30;90.10;;;;;;5071202;28;20032;-69
2023/09/24 12:42:07;;;;;;;2.97;1.20;;;21.30;89.90;;;;;;5073862;28;20027;-69
2023/09/24 12:44:33;;;;;;;2.97;1.23;;;21.30;84.70;;;;;;5091248;28;20085;-69
2023/09/24 12:46:59;;;;;;;4.75;1.60;;;21.10;84.10;;;;;;5090138;28;20032;-68
2023/09/24 12:49:25;;;;;;;3.15;1.33;;;20.80;84.90;;;;;;5090980;28;20059;-69
2023/09/24 12:51:50;;;;;;;3.33;1.52;;;21.10;87.90;;;;;;5088183;28;20032;-68
2023/09/24 12:54:16;;;;;;;3.30;1.58;;;21.10;87.70;;;;;;5075350;28;20039;-69
2023/09/24 12:56:43;;;;;;;3.15;1.38;;;21.00;85.90;;;;;;5088975;28;21938;-67